Aérodrome :
LOGIN :

S'inscrire | Disclaimer

   EN    FR    IT 

 










Légende :    VFR   VFR Marginal   IFR   IFR Intensif   IFR Très Intensif
Visi : 
Plafond : 
>= 8 km
>= 3000ft
5 à 8 km
1000 à 3000 ft
1500m à 5 km
500 à 1000 ft
800 à 1500m
200 à 500 ft
< 800m
< 200 ft
Symboles :   Orages  Brouillard  Fortes neiges  Fortes précipitations  Vent > 20 kt
SIGMETs :   Divers  Orages  Givrage  Turbulence  Onde Orograph.  Cendres Volcan.






- Altitude de l'aérodrome : 3 ft
- Code IATA : DHR


EHKD - Den Helder De Kooy

DERNIER METAR :
  • 051255Z AUTO 03007KT 360V070 9999 FEW024 FEW025CB BKN041 BKN047 21/15 Q1007 BLU TEMPO 4000 SHRA FEW012 SCT022CB

METARs EXPIRÉS :
  • 051225Z AUTO 01007KT 330V050 9999 FEW022CB BKN040 BKN046 21/15 Q1007 BLU TEMPO 4000 SHRA FEW012 SCT022CB
  • 051155Z AUTO 30005KT 220V010 9999 FEW025CB 22/16 Q1008 BLU TEMPO 4000 SHRA FEW012 SCT022CB
  • 051125Z AUTO 31006KT 260V360 9999 FEW021CB SCT032 BKN042 21/16 Q1008 BLU TEMPO 4000 SHRA FEW012 SCT022CB
  • 051057Z AUTO 08005KT 030V140 9999 SCT019 BKN024 OVC027 21/16 Q1008 WHT TEMPO 4000 SHRA FEW012 SCT022CB
  • 051034Z AUTO 06006KT 040V100 9999 FEW035 SCT042 BKN048 20/16 Q1008 BLU TEMPO 4000 SHRA FEW012 SCT022CB
  • 051025Z AUTO 08006KT 030V110 9999 FEW050 SCT069 20/15 Q1008 BLU NOSIG

TAF TAF EHKD
Valide du 05 à 13h jusqu'au 06 à 01h UTC


051220Z 0513/0601 VRB02KT 9999 SCT024
TEMPO 0513/0518 VRB07KT 4000 -SHRA SCT020CB BKN040
BECMG 0518/0520 14008KT



MET'MAP, la Météo Aéronautique d'un coup d'oeil ! - Copyright ORBIFLY Décembre 2007 - Disclaimer

ORBIFLY MET'MAP TEAM :

Programmation & Développement : Alexandra Zaïnal
Sur une idée originale de : Baudouin d'Aumeries
Assistance à la programmation : Marc-Olivier Méhu
Soutien technique & logistique : Manuel Goepfert

Contact : metmap@orbifly.com




SOURCES & CREDITS :

   NOAA